sensor_id;sensor_type;location;lat;lon;timestamp;P1;durP1;ratioP1;P2;durP2;ratioP2
2488;SDS011;1255;48.716;9.124;2022-09-01T00:00:06;9.57;;;8.57;;
2488;SDS011;1255;48.716;9.124;2022-09-01T00:02:37;9.47;;;8.10;;
2488;SDS011;1255;48.716;9.124;2022-09-01T00:05:04;11.37;;;8.53;;
2488;SDS011;1255;48.716;9.124;2022-09-01T00:07:32;10.67;;;9.00;;
2488;SDS011;1255;48.716;9.124;2022-09-01T00:10:00;9.70;;;7.70;;
2488;SDS011;1255;48.716;9.124;2022-09-01T00:12:31;9.63;;;8.20;;
2488;SDS011;1255;48.716;9.124;2022-09-01T00:14:57;8.97;;;7.97;;
2488;SDS011;1255;48.716;9.124;2022-09-01T00:17:24;8.93;;;8.03;;
2488;SDS011;1255;48.716;9.124;2022-09-01T00:19:52;8.50;;;7.47;;
2488;SDS011;1255;48.716;9.124;2022-09-01T00:22:19;9.60;;;7.40;;
2488;SDS011;1255;48.716;9.124;2022-09-01T00:24:46;10.03;;;8.40;;
2488;SDS011;1255;48.716;9.124;2022-09-01T00:27:13;9.97;;;8.20;;
2488;SDS011;1255;48.716;9.124;2022-09-01T00:29:41;9.57;;;8.63;;
2488;SDS011;1255;48.716;9.124;2022-09-01T00:32:08;9.00;;;7.80;;
2488;SDS011;1255;48.716;9.124;2022-09-01T00:34:35;8.67;;;7.77;;
2488;SDS011;1255;48.716;9.124;2022-09-01T00:37:02;9.73;;;8.53;;
2488;SDS011;1255;48.716;9.124;2022-09-01T00:39:29;9.23;;;7.27;;
2488;SDS011;1255;48.716;9.124;2022-09-01T00:41:56;8.20;;;7.43;;
2488;SDS011;1255;48.716;9.124;2022-09-01T00:44:23;8.10;;;7.17;;
2488;SDS011;1255;48.716;9.124;2022-09-01T00:46:53;9.73;;;7.80;;
2488;SDS011;1255;48.716;9.124;2022-09-01T00:49:22;9.43;;;7.70;;
2488;SDS011;1255;48.716;9.124;2022-09-01T00:51:54;10.30;;;8.60;;
2488;SDS011;1255;48.716;9.124;2022-09-01T00:54:26;9.30;;;7.83;;
2488;SDS011;1255;48.716;9.124;2022-09-01T00:56:57;10.23;;;7.83;;
2488;SDS011;1255;48.716;9.124;2022-09-01T00:59:25;10.60;;;8.60;;
2488;SDS011;1255;48.716;9.124;2022-09-01T01:01:55;9.40;;;7.87;;
2488;SDS011;1255;48.716;9.124;2022-09-01T01:04:22;8.27;;;7.07;;
2488;SDS011;1255;48.716;9.124;2022-09-01T01:06:50;8.80;;;7.77;;
2488;SDS011;1255;48.716;9.124;2022-09-01T01:09:26;9.10;;;8.20;;
2488;SDS011;1255;48.716;9.124;2022-09-01T01:11:55;9.67;;;8.60;;
2488;SDS011;1255;48.716;9.124;2022-09-01T01:14:24;10.33;;;8.90;;
2488;SDS011;1255;48.716;9.124;2022-09-01T01:16:58;9.03;;;8.17;;
2488;SDS011;1255;48.716;9.124;2022-09-01T01:19:28;8.00;;;7.20;;
2488;SDS011;1255;48.716;9.124;2022-09-01T01:22:24;10.60;;;8.60;;
2488;SDS011;1255;48.716;9.124;2022-09-01T01:25:13;8.90;;;7.33;;
2488;SDS011;1255;48.716;9.124;2022-09-01T01:27:43;9.03;;;7.90;;
2488;SDS011;1255;48.716;9.124;2022-09-01T01:30:10;8.60;;;7.70;;
2488;SDS011;1255;48.716;9.124;2022-09-01T01:32:38;10.17;;;8.37;;
2488;SDS011;1255;48.716;9.124;2022-09-01T01:35:08;10.07;;;9.07;;
2488;SDS011;1255;48.716;9.124;2022-09-01T01:37:38;9.43;;;8.47;;
2488;SDS011;1255;48.716;9.124;2022-09-01T01:40:08;8.63;;;7.70;;
2488;SDS011;1255;48.716;9.124;2022-09-01T01:42:40;9.90;;;8.00;;
2488;SDS011;1255;48.716;9.124;2022-09-01T01:45:10;8.83;;;7.80;;
2488;SDS011;1255;48.716;9.124;2022-09-01T01:47:41;9.07;;;7.87;;
2488;SDS011;1255;48.716;9.124;2022-09-01T01:50:09;9.00;;;7.47;;
2488;SDS011;1255;48.716;9.124;2022-09-01T01:52:36;9.43;;;8.03;;
2488;SDS011;1255;48.716;9.124;2022-09-01T01:55:03;9.50;;;8.50;;
2488;SDS011;1255;48.716;9.124;2022-09-01T01:57:35;13.43;;;7.20;;
2488;SDS011;1255;48.716;9.124;2022-09-01T02:00:05;7.83;;;7.03;;
2488;SDS011;1255;48.716;9.124;2022-09-01T02:02:33;10.13;;;8.47;;
2488;SDS011;1255;48.716;9.124;2022-09-01T02:05:02;9.20;;;8.00;;
2488;SDS011;1255;48.716;9.124;2022-09-01T02:07:30;9.37;;;8.10;;
2488;SDS011;1255;48.716;9.124;2022-09-01T02:09:57;8.93;;;8.03;;
2488;SDS011;1255;48.716;9.124;2022-09-01T02:12:25;10.43;;;8.57;;
2488;SDS011;1255;48.716;9.124;2022-09-01T02:14:56;9.83;;;8.83;;
2488;SDS011;1255;48.716;9.124;2022-09-01T02:17:26;9.97;;;8.87;;
2488;SDS011;1255;48.716;9.124;2022-09-01T02:19:53;10.33;;;9.27;;
2488;SDS011;1255;48.716;9.124;2022-09-01T02:22:22;11.00;;;9.90;;
2488;SDS011;1255;48.716;9.124;2022-09-01T02:24:49;9.23;;;8.27;;
2488;SDS011;1255;48.716;9.124;2022-09-01T02:27:16;11.70;;;9.47;;
2488;SDS011;1255;48.716;9.124;2022-09-01T02:29:46;13.37;;;10.13;;
2488;SDS011;1255;48.716;9.124;2022-09-01T02:32:15;9.67;;;8.67;;
2488;SDS011;1255;48.716;9.124;2022-09-01T02:34:47;12.97;;;9.37;;
2488;SDS011;1255;48.716;9.124;2022-09-01T02:37:17;9.67;;;8.43;;
2488;SDS011;1255;48.716;9.124;2022-09-01T02:39:46;10.63;;;8.80;;
2488;SDS011;1255;48.716;9.124;2022-09-01T02:42:12;11.33;;;9.07;;
2488;SDS011;1255;48.716;9.124;2022-09-01T02:44:39;9.20;;;7.73;;
2488;SDS011;1255;48.716;9.124;2022-09-01T02:47:07;9.70;;;8.17;;
2488;SDS011;1255;48.716;9.124;2022-09-01T02:49:34;10.03;;;9.00;;
2488;SDS011;1255;48.716;9.124;2022-09-01T02:52:04;8.80;;;7.90;;
2488;SDS011;1255;48.716;9.124;2022-09-01T02:54:31;10.13;;;8.10;;
2488;SDS011;1255;48.716;9.124;2022-09-01T02:56:58;8.10;;;7.30;;
2488;SDS011;1255;48.716;9.124;2022-09-01T02:59:26;9.33;;;7.73;;
2488;SDS011;1255;48.716;9.124;2022-09-01T03:01:54;8.87;;;7.50;;
2488;SDS011;1255;48.716;9.124;2022-09-01T03:04:21;9.53;;;8.60;;
2488;SDS011;1255;48.716;9.124;2022-09-01T03:06:51;8.53;;;7.60;;
2488;SDS011;1255;48.716;9.124;2022-09-01T03:09:20;9.60;;;8.60;;
2488;SDS011;1255;48.716;9.124;2022-09-01T03:11:48;10.20;;;8.33;;
2488;SDS011;1255;48.716;9.124;2022-09-01T03:14:16;9.10;;;8.20;;
2488;SDS011;1255;48.716;9.124;2022-09-01T03:16:43;9.07;;;7.27;;
2488;SDS011;1255;48.716;9.124;2022-09-01T03:19:10;12.37;;;8.40;;
2488;SDS011;1255;48.716;9.124;2022-09-01T03:21:39;9.30;;;8.30;;
2488;SDS011;1255;48.716;9.124;2022-09-01T03:24:07;11.80;;;9.27;;
2488;SDS011;1255;48.716;9.124;2022-09-01T03:26:37;9.73;;;7.90;;
2488;SDS011;1255;48.716;9.124;2022-09-01T03:29:04;8.73;;;7.83;;
2488;SDS011;1255;48.716;9.124;2022-09-01T03:31:31;9.73;;;8.37;;
2488;SDS011;1255;48.716;9.124;2022-09-01T03:33:58;10.43;;;9.40;;
2488;SDS011;1255;48.716;9.124;2022-09-01T03:36:27;11.70;;;8.80;;
2488;SDS011;1255;48.716;9.124;2022-09-01T03:38:55;9.30;;;8.30;;
2488;SDS011;1255;48.716;9.124;2022-09-01T03:41:23;11.00;;;9.90;;
2488;SDS011;1255;48.716;9.124;2022-09-01T03:43:55;11.40;;;9.97;;
2488;SDS011;1255;48.716;9.124;2022-09-01T03:46:24;10.83;;;9.43;;
2488;SDS011;1255;48.716;9.124;2022-09-01T03:51:29;11.70;;;8.97;;
2488;SDS011;1255;48.716;9.124;2022-09-01T03:56:31;10.40;;;8.20;;
2488;SDS011;1255;48.716;9.124;2022-09-01T03:59:00;10.67;;;9.17;;
2488;SDS011;1255;48.716;9.124;2022-09-01T04:01:27;10.13;;;8.90;;
2488;SDS011;1255;48.716;9.124;2022-09-01T04:03:56;8.73;;;7.73;;
2488;SDS011;1255;48.716;9.124;2022-09-01T04:06:25;9.57;;;8.57;;
2488;SDS011;1255;48.716;9.124;2022-09-01T04:08:54;10.50;;;9.10;;
2488;SDS011;1255;48.716;9.124;2022-09-01T04:11:26;9.57;;;8.00;;
2488;SDS011;1255;48.716;9.124;2022-09-01T04:14:08;11.23;;;9.73;;
2488;SDS011;1255;48.716;9.124;2022-09-01T04:16:37;10.53;;;8.67;;
2488;SDS011;1255;48.716;9.124;2022-09-01T04:19:23;12.17;;;7.33;;
2488;SDS011;1255;48.716;9.124;2022-09-01T04:21:52;9.60;;;8.60;;
2488;SDS011;1255;48.716;9.124;2022-09-01T04:24:20;9.30;;;8.40;;
2488;SDS011;1255;48.716;9.124;2022-09-01T04:26:48;9.43;;;8.40;;
2488;SDS011;1255;48.716;9.124;2022-09-01T04:29:18;10.53;;;8.50;;
2488;SDS011;1255;48.716;9.124;2022-09-01T04:31:51;11.43;;;9.23;;
2488;SDS011;1255;48.716;9.124;2022-09-01T04:34:21;10.50;;;9.40;;
2488;SDS011;1255;48.716;9.124;2022-09-01T04:36:48;10.57;;;9.47;;
2488;SDS011;1255;48.716;9.124;2022-09-01T04:39:17;10.93;;;8.60;;
2488;SDS011;1255;48.716;9.124;2022-09-01T04:41:44;8.27;;;7.23;;
2488;SDS011;1255;48.716;9.124;2022-09-01T04:44:15;9.70;;;8.10;;
2488;SDS011;1255;48.716;9.124;2022-09-01T04:46:44;9.40;;;8.33;;
2488;SDS011;1255;48.716;9.124;2022-09-01T04:49:15;15.53;;;9.80;;
2488;SDS011;1255;48.716;9.124;2022-09-01T04:51:47;11.00;;;9.73;;
2488;SDS011;1255;48.716;9.124;2022-09-01T04:54:15;8.80;;;7.50;;
2488;SDS011;1255;48.716;9.124;2022-09-01T04:56:44;12.50;;;10.10;;
2488;SDS011;1255;48.716;9.124;2022-09-01T04:59:14;11.00;;;9.17;;
2488;SDS011;1255;48.716;9.124;2022-09-01T05:01:45;9.40;;;8.47;;
2488;SDS011;1255;48.716;9.124;2022-09-01T05:04:16;9.70;;;8.70;;
2488;SDS011;1255;48.716;9.124;2022-09-01T05:06:47;11.60;;;10.40;;
2488;SDS011;1255;48.716;9.124;2022-09-01T05:09:15;12.20;;;8.73;;
2488;SDS011;1255;48.716;9.124;2022-09-01T05:11:43;12.47;;;9.90;;
2488;SDS011;1255;48.716;9.124;2022-09-01T05:14:10;12.27;;;9.17;;
2488;SDS011;1255;48.716;9.124;2022-09-01T05:16:37;9.67;;;8.63;;
2488;SDS011;1255;48.716;9.124;2022-09-01T05:19:07;13.00;;;10.07;;
2488;SDS011;1255;48.716;9.124;2022-09-01T05:21:38;11.87;;;9.97;;
2488;SDS011;1255;48.716;9.124;2022-09-01T05:24:05;11.07;;;9.53;;
2488;SDS011;1255;48.716;9.124;2022-09-01T05:26:34;11.50;;;10.30;;
2488;SDS011;1255;48.716;9.124;2022-09-01T05:29:13;12.67;;;10.37;;
2488;SDS011;1255;48.716;9.124;2022-09-01T05:31:45;12.33;;;10.43;;
2488;SDS011;1255;48.716;9.124;2022-09-01T05:34:34;14.53;;;10.33;;
2488;SDS011;1255;48.716;9.124;2022-09-01T05:37:06;11.43;;;9.53;;
2488;SDS011;1255;48.716;9.124;2022-09-01T05:39:36;13.70;;;10.57;;
2488;SDS011;1255;48.716;9.124;2022-09-01T05:42:03;11.63;;;10.43;;
2488;SDS011;1255;48.716;9.124;2022-09-01T05:57:04;11.53;;;9.20;;
2488;SDS011;1255;48.716;9.124;2022-09-01T05:59:31;12.30;;;10.17;;
2488;SDS011;1255;48.716;9.124;2022-09-01T06:01:59;11.80;;;9.97;;
2488;SDS011;1255;48.716;9.124;2022-09-01T06:04:26;12.50;;;10.07;;
2488;SDS011;1255;48.716;9.124;2022-09-01T06:06:54;12.50;;;10.97;;
2488;SDS011;1255;48.716;9.124;2022-09-01T06:09:21;12.77;;;9.77;;
2488;SDS011;1255;48.716;9.124;2022-09-01T06:11:48;13.07;;;11.07;;
2488;SDS011;1255;48.716;9.124;2022-09-01T06:14:50;14.53;;;11.40;;
2488;SDS011;1255;48.716;9.124;2022-09-01T06:22:29;12.97;;;10.40;;
2488;SDS011;1255;48.716;9.124;2022-09-01T06:24:59;10.50;;;8.80;;
2488;SDS011;1255;48.716;9.124;2022-09-01T06:32:52;9.07;;;8.17;;
2488;SDS011;1255;48.716;9.124;2022-09-01T06:40:46;10.53;;;9.43;;
2488;SDS011;1255;48.716;9.124;2022-09-01T06:54:20;15.47;;;12.03;;
2488;SDS011;1255;48.716;9.124;2022-09-01T07:02:47;11.90;;;9.77;;
2488;SDS011;1255;48.716;9.124;2022-09-01T07:05:23;11.50;;;9.20;;
2488;SDS011;1255;48.716;9.124;2022-09-01T07:07:51;13.83;;;10.13;;
2488;SDS011;1255;48.716;9.124;2022-09-01T07:10:22;12.90;;;9.27;;
2488;SDS011;1255;48.716;9.124;2022-09-01T07:12:55;12.03;;;9.50;;
2488;SDS011;1255;48.716;9.124;2022-09-01T09:14:58;6.43;;;5.80;;
2488;SDS011;1255;48.716;9.124;2022-09-01T09:17:35;7.37;;;6.60;;
2488;SDS011;1255;48.716;9.124;2022-09-01T09:20:07;6.37;;;4.97;;
2488;SDS011;1255;48.716;9.124;2022-09-01T09:22:39;7.17;;;6.23;;
2488;SDS011;1255;48.716;9.124;2022-09-01T09:59:53;4.93;;;4.43;;
2488;SDS011;1255;48.716;9.124;2022-09-01T10:02:26;4.80;;;4.40;;
2488;SDS011;1255;48.716;9.124;2022-09-01T10:04:57;4.37;;;3.97;;
2488;SDS011;1255;48.716;9.124;2022-09-01T10:07:29;4.53;;;4.10;;
2488;SDS011;1255;48.716;9.124;2022-09-01T10:09:59;4.90;;;4.43;;
2488;SDS011;1255;48.716;9.124;2022-09-01T10:12:29;4.40;;;4.00;;
2488;SDS011;1255;48.716;9.124;2022-09-01T10:14:59;4.13;;;3.83;;
2488;SDS011;1255;48.716;9.124;2022-09-01T10:17:29;4.30;;;3.83;;
2488;SDS011;1255;48.716;9.124;2022-09-01T10:19:59;4.00;;;3.60;;
2488;SDS011;1255;48.716;9.124;2022-09-01T10:22:31;4.50;;;4.10;;
2488;SDS011;1255;48.716;9.124;2022-09-01T10:25:00;4.37;;;3.97;;
2488;SDS011;1255;48.716;9.124;2022-09-01T10:27:28;3.87;;;3.47;;
2488;SDS011;1255;48.716;9.124;2022-09-01T10:30:03;3.80;;;3.50;;
2488;SDS011;1255;48.716;9.124;2022-09-01T10:32:33;3.47;;;3.13;;
2488;SDS011;1255;48.716;9.124;2022-09-01T10:35:05;3.93;;;3.27;;
2488;SDS011;1255;48.716;9.124;2022-09-01T10:37:35;4.23;;;3.70;;
2488;SDS011;1255;48.716;9.124;2022-09-01T10:40:13;3.57;;;3.27;;
2488;SDS011;1255;48.716;9.124;2022-09-01T10:42:43;3.77;;;3.47;;
2488;SDS011;1255;48.716;9.124;2022-09-01T10:45:27;3.57;;;3.27;;
2488;SDS011;1255;48.716;9.124;2022-09-01T10:50:49;3.40;;;3.00;;
2488;SDS011;1255;48.716;9.124;2022-09-01T10:56:06;3.60;;;3.30;;
2488;SDS011;1255;48.716;9.124;2022-09-01T10:58:42;4.13;;;3.37;;
2488;SDS011;1255;48.716;9.124;2022-09-01T11:04:21;3.97;;;3.20;;
2488;SDS011;1255;48.716;9.124;2022-09-01T11:07:20;3.27;;;3.00;;
2488;SDS011;1255;48.716;9.124;2022-09-01T11:10:06;2.70;;;2.50;;
2488;SDS011;1255;48.716;9.124;2022-09-01T11:12:46;3.83;;;3.33;;
2488;SDS011;1255;48.716;9.124;2022-09-01T11:15:34;3.60;;;3.30;;
2488;SDS011;1255;48.716;9.124;2022-09-01T11:18:08;2.77;;;2.57;;
2488;SDS011;1255;48.716;9.124;2022-09-01T11:20:39;3.80;;;3.30;;
2488;SDS011;1255;48.716;9.124;2022-09-01T11:23:09;3.43;;;3.13;;
2488;SDS011;1255;48.716;9.124;2022-09-01T11:25:39;3.07;;;2.87;;
2488;SDS011;1255;48.716;9.124;2022-09-01T11:31:20;3.60;;;3.10;;
2488;SDS011;1255;48.716;9.124;2022-09-01T11:34:02;2.80;;;2.60;;
2488;SDS011;1255;48.716;9.124;2022-09-01T11:36:52;3.93;;;3.53;;
2488;SDS011;1255;48.716;9.124;2022-09-01T11:39:30;2.90;;;2.70;;
2488;SDS011;1255;48.716;9.124;2022-09-01T11:42:00;2.53;;;2.33;;
2488;SDS011;1255;48.716;9.124;2022-09-01T11:44:34;3.20;;;2.90;;
2488;SDS011;1255;48.716;9.124;2022-09-01T11:47:06;3.10;;;2.87;;
2488;SDS011;1255;48.716;9.124;2022-09-01T11:52:41;3.73;;;3.33;;
2488;SDS011;1255;48.716;9.124;2022-09-01T11:55:17;3.13;;;2.83;;
2488;SDS011;1255;48.716;9.124;2022-09-01T11:57:54;7.30;;;2.87;;
2488;SDS011;1255;48.716;9.124;2022-09-01T12:00:24;2.80;;;2.60;;
2488;SDS011;1255;48.716;9.124;2022-09-01T12:02:54;2.50;;;2.30;;
2488;SDS011;1255;48.716;9.124;2022-09-01T12:05:23;2.77;;;2.57;;
2488;SDS011;1255;48.716;9.124;2022-09-01T12:07:54;2.80;;;2.60;;
2488;SDS011;1255;48.716;9.124;2022-09-01T12:10:26;3.30;;;3.00;;
2488;SDS011;1255;48.716;9.124;2022-09-01T12:12:59;3.57;;;3.00;;
2488;SDS011;1255;48.716;9.124;2022-09-01T12:15:28;7.50;;;3.30;;
2488;SDS011;1255;48.716;9.124;2022-09-01T12:18:08;3.50;;;3.20;;
2488;SDS011;1255;48.716;9.124;2022-09-01T12:20:38;3.37;;;3.10;;
2488;SDS011;1255;48.716;9.124;2022-09-01T12:23:15;3.13;;;2.93;;
2488;SDS011;1255;48.716;9.124;2022-09-01T12:25:44;3.20;;;3.00;;
2488;SDS011;1255;48.716;9.124;2022-09-01T12:28:12;3.50;;;3.20;;
2488;SDS011;1255;48.716;9.124;2022-09-01T12:30:40;3.23;;;2.93;;
2488;SDS011;1255;48.716;9.124;2022-09-01T12:33:09;3.20;;;3.00;;
2488;SDS011;1255;48.716;9.124;2022-09-01T12:35:51;3.20;;;3.00;;
2488;SDS011;1255;48.716;9.124;2022-09-01T12:38:29;2.77;;;2.57;;
2488;SDS011;1255;48.716;9.124;2022-09-01T12:40:56;3.30;;;3.00;;
2488;SDS011;1255;48.716;9.124;2022-09-01T12:43:30;3.27;;;2.97;;
2488;SDS011;1255;48.716;9.124;2022-09-01T12:45:59;3.67;;;3.37;;
2488;SDS011;1255;48.716;9.124;2022-09-01T12:48:29;3.20;;;3.00;;
2488;SDS011;1255;48.716;9.124;2022-09-01T12:50:58;3.20;;;2.90;;
2488;SDS011;1255;48.716;9.124;2022-09-01T12:53:30;3.03;;;2.83;;
2488;SDS011;1255;48.716;9.124;2022-09-01T12:56:19;3.40;;;3.10;;
2488;SDS011;1255;48.716;9.124;2022-09-01T12:59:07;2.57;;;2.37;;
2488;SDS011;1255;48.716;9.124;2022-09-01T13:01:37;3.03;;;2.83;;
2488;SDS011;1255;48.716;9.124;2022-09-01T13:04:15;3.20;;;2.90;;
2488;SDS011;1255;48.716;9.124;2022-09-01T13:06:54;3.70;;;2.80;;
2488;SDS011;1255;48.716;9.124;2022-09-01T13:09:23;3.40;;;3.10;;
2488;SDS011;1255;48.716;9.124;2022-09-01T13:12:00;3.20;;;2.97;;
2488;SDS011;1255;48.716;9.124;2022-09-01T13:14:35;3.30;;;3.00;;
2488;SDS011;1255;48.716;9.124;2022-09-01T13:17:03;3.17;;;2.87;;
2488;SDS011;1255;48.716;9.124;2022-09-01T13:19:31;3.40;;;3.10;;
2488;SDS011;1255;48.716;9.124;2022-09-01T13:21:58;3.60;;;3.00;;
2488;SDS011;1255;48.716;9.124;2022-09-01T13:27:37;2.43;;;2.23;;
2488;SDS011;1255;48.716;9.124;2022-09-01T13:30:09;2.90;;;2.60;;
2488;SDS011;1255;48.716;9.124;2022-09-01T13:32:38;2.80;;;2.60;;
2488;SDS011;1255;48.716;9.124;2022-09-01T13:35:05;3.03;;;2.60;;
2488;SDS011;1255;48.716;9.124;2022-09-01T13:37:32;3.17;;;2.93;;
2488;SDS011;1255;48.716;9.124;2022-09-01T13:40:03;3.70;;;2.43;;
2488;SDS011;1255;48.716;9.124;2022-09-01T13:42:31;3.00;;;2.80;;
2488;SDS011;1255;48.716;9.124;2022-09-01T13:45:00;2.70;;;2.50;;
2488;SDS011;1255;48.716;9.124;2022-09-01T13:47:27;3.30;;;2.93;;
2488;SDS011;1255;48.716;9.124;2022-09-01T13:49:53;2.83;;;2.60;;
2488;SDS011;1255;48.716;9.124;2022-09-01T14:19:37;3.13;;;2.93;;
2488;SDS011;1255;48.716;9.124;2022-09-01T15:53:02;2.70;;;2.50;;
2488;SDS011;1255;48.716;9.124;2022-09-01T16:11:19;3.20;;;3.00;;
2488;SDS011;1255;48.716;9.124;2022-09-01T16:13:59;2.70;;;2.50;;
2488;SDS011;1255;48.716;9.124;2022-09-01T16:16:48;3.17;;;2.87;;
2488;SDS011;1255;48.716;9.124;2022-09-01T16:19:29;3.00;;;2.80;;
2488;SDS011;1255;48.716;9.124;2022-09-01T16:27:14;2.93;;;2.73;;
2488;SDS011;1255;48.716;9.124;2022-09-01T18:51:30;4.17;;;3.77;;
2488;SDS011;1255;48.716;9.124;2022-09-01T18:54:20;3.83;;;3.53;;
2488;SDS011;1255;48.716;9.124;2022-09-01T19:15:42;5.07;;;4.60;;
2488;SDS011;1255;48.716;9.124;2022-09-01T19:18:34;5.07;;;4.30;;
2488;SDS011;1255;48.716;9.124;2022-09-01T20:12:36;4.30;;;3.90;;
2488;SDS011;1255;48.716;9.124;2022-09-01T20:15:16;4.40;;;4.00;;
2488;SDS011;1255;48.716;9.124;2022-09-01T20:17:57;3.83;;;3.53;;
2488;SDS011;1255;48.716;9.124;2022-09-01T20:20:36;4.57;;;4.03;;
2488;SDS011;1255;48.716;9.124;2022-09-01T20:23:41;4.03;;;3.33;;
2488;SDS011;1255;48.716;9.124;2022-09-01T20:31:37;3.70;;;3.33;;
2488;SDS011;1255;48.716;9.124;2022-09-01T20:34:30;3.73;;;3.43;;
2488;SDS011;1255;48.716;9.124;2022-09-01T20:37:35;3.90;;;3.50;;
2488;SDS011;1255;48.716;9.124;2022-09-01T20:40:16;3.47;;;3.17;;
2488;SDS011;1255;48.716;9.124;2022-09-01T20:43:07;4.03;;;3.73;;
2488;SDS011;1255;48.716;9.124;2022-09-01T20:45:56;4.00;;;3.70;;
2488;SDS011;1255;48.716;9.124;2022-09-01T20:48:36;4.70;;;4.00;;
2488;SDS011;1255;48.716;9.124;2022-09-01T20:51:42;4.57;;;4.17;;
2488;SDS011;1255;48.716;9.124;2022-09-01T20:54:30;4.40;;;3.33;;
2488;SDS011;1255;48.716;9.124;2022-09-01T20:57:24;3.87;;;3.57;;
2488;SDS011;1255;48.716;9.124;2022-09-01T21:00:19;5.20;;;3.67;;
2488;SDS011;1255;48.716;9.124;2022-09-01T21:03:01;4.43;;;4.13;;
2488;SDS011;1255;48.716;9.124;2022-09-01T21:05:37;3.90;;;3.60;;
2488;SDS011;1255;48.716;9.124;2022-09-01T21:08:15;3.73;;;3.40;;
2488;SDS011;1255;48.716;9.124;2022-09-01T21:10:53;4.07;;;3.67;;
2488;SDS011;1255;48.716;9.124;2022-09-01T21:13:27;3.50;;;3.20;;
2488;SDS011;1255;48.716;9.124;2022-09-01T21:16:08;3.93;;;3.63;;
2488;SDS011;1255;48.716;9.124;2022-09-01T21:18:44;3.60;;;3.30;;
2488;SDS011;1255;48.716;9.124;2022-09-01T21:21:22;4.40;;;3.63;;
2488;SDS011;1255;48.716;9.124;2022-09-01T21:23:57;4.37;;;3.97;;
2488;SDS011;1255;48.716;9.124;2022-09-01T21:26:24;4.00;;;3.63;;
2488;SDS011;1255;48.716;9.124;2022-09-01T21:28:52;3.97;;;3.57;;
2488;SDS011;1255;48.716;9.124;2022-09-01T21:31:20;3.97;;;3.67;;
2488;SDS011;1255;48.716;9.124;2022-09-01T21:33:48;4.17;;;3.87;;
2488;SDS011;1255;48.716;9.124;2022-09-01T21:36:17;3.77;;;3.47;;
2488;SDS011;1255;48.716;9.124;2022-09-01T21:38:46;4.23;;;3.83;;
2488;SDS011;1255;48.716;9.124;2022-09-01T21:41:13;3.90;;;3.57;;
2488;SDS011;1255;48.716;9.124;2022-09-01T21:43:40;3.47;;;3.17;;
2488;SDS011;1255;48.716;9.124;2022-09-01T21:46:10;4.50;;;4.10;;
2488;SDS011;1255;48.716;9.124;2022-09-01T21:48:40;5.70;;;3.77;;
2488;SDS011;1255;48.716;9.124;2022-09-01T21:51:07;4.00;;;3.63;;
2488;SDS011;1255;48.716;9.124;2022-09-01T21:53:34;4.40;;;4.00;;
2488;SDS011;1255;48.716;9.124;2022-09-01T21:56:02;3.93;;;3.63;;
2488;SDS011;1255;48.716;9.124;2022-09-01T21:58:29;3.67;;;3.37;;
2488;SDS011;1255;48.716;9.124;2022-09-01T22:00:56;3.70;;;3.40;;
2488;SDS011;1255;48.716;9.124;2022-09-01T22:03:23;3.70;;;3.37;;
2488;SDS011;1255;48.716;9.124;2022-09-01T22:05:50;4.13;;;3.80;;
2488;SDS011;1255;48.716;9.124;2022-09-01T22:08:17;4.40;;;4.00;;
2488;SDS011;1255;48.716;9.124;2022-09-01T22:10:45;4.60;;;3.83;;
2488;SDS011;1255;48.716;9.124;2022-09-01T22:13:14;4.40;;;4.10;;
2488;SDS011;1255;48.716;9.124;2022-09-01T22:15:42;3.63;;;3.33;;
2488;SDS011;1255;48.716;9.124;2022-09-01T22:18:10;3.83;;;3.43;;
2488;SDS011;1255;48.716;9.124;2022-09-01T22:20:38;3.40;;;3.10;;
2488;SDS011;1255;48.716;9.124;2022-09-01T22:23:05;3.93;;;3.63;;
2488;SDS011;1255;48.716;9.124;2022-09-01T22:25:32;4.03;;;3.67;;
2488;SDS011;1255;48.716;9.124;2022-09-01T22:28:00;3.90;;;3.33;;
2488;SDS011;1255;48.716;9.124;2022-09-01T22:30:30;3.87;;;3.57;;
2488;SDS011;1255;48.716;9.124;2022-09-01T22:32:57;4.13;;;3.73;;
2488;SDS011;1255;48.716;9.124;2022-09-01T22:35:25;3.67;;;3.23;;
2488;SDS011;1255;48.716;9.124;2022-09-01T22:37:51;3.27;;;2.97;;
2488;SDS011;1255;48.716;9.124;2022-09-01T22:40:18;3.70;;;3.40;;
2488;SDS011;1255;48.716;9.124;2022-09-01T22:42:45;4.23;;;3.83;;
2488;SDS011;1255;48.716;9.124;2022-09-01T22:45:13;3.37;;;3.07;;
2488;SDS011;1255;48.716;9.124;2022-09-01T22:47:41;3.80;;;3.00;;
2488;SDS011;1255;48.716;9.124;2022-09-01T22:50:08;3.47;;;3.23;;
2488;SDS011;1255;48.716;9.124;2022-09-01T22:52:35;3.47;;;3.17;;
2488;SDS011;1255;48.716;9.124;2022-09-01T22:55:05;4.27;;;3.87;;
2488;SDS011;1255;48.716;9.124;2022-09-01T22:57:34;5.00;;;3.63;;
2488;SDS011;1255;48.716;9.124;2022-09-01T23:00:03;5.30;;;3.60;;
2488;SDS011;1255;48.716;9.124;2022-09-01T23:02:32;3.70;;;3.40;;
2488;SDS011;1255;48.716;9.124;2022-09-01T23:05:00;5.17;;;3.60;;
2488;SDS011;1255;48.716;9.124;2022-09-01T23:07:28;3.83;;;3.50;;
2488;SDS011;1255;48.716;9.124;2022-09-01T23:09:54;3.63;;;3.33;;
2488;SDS011;1255;48.716;9.124;2022-09-01T23:12:21;4.00;;;3.60;;
2488;SDS011;1255;48.716;9.124;2022-09-01T23:14:48;3.40;;;3.10;;
2488;SDS011;1255;48.716;9.124;2022-09-01T23:17:15;3.73;;;3.43;;
2488;SDS011;1255;48.716;9.124;2022-09-01T23:19:42;3.50;;;3.20;;
2488;SDS011;1255;48.716;9.124;2022-09-01T23:22:10;3.80;;;3.50;;
2488;SDS011;1255;48.716;9.124;2022-09-01T23:24:37;4.40;;;3.60;;
2488;SDS011;1255;48.716;9.124;2022-09-01T23:27:04;3.70;;;3.13;;
2488;SDS011;1255;48.716;9.124;2022-09-01T23:29:30;4.33;;;3.93;;
2488;SDS011;1255;48.716;9.124;2022-09-01T23:32:03;3.30;;;3.10;;
2488;SDS011;1255;48.716;9.124;2022-09-01T23:34:30;3.80;;;3.50;;
2488;SDS011;1255;48.716;9.124;2022-09-01T23:36:57;4.90;;;3.80;;
2488;SDS011;1255;48.716;9.124;2022-09-01T23:39:26;4.60;;;4.17;;
2488;SDS011;1255;48.716;9.124;2022-09-01T23:41:52;3.93;;;3.50;;
2488;SDS011;1255;48.716;9.124;2022-09-01T23:44:19;3.00;;;2.80;;
2488;SDS011;1255;48.716;9.124;2022-09-01T23:46:47;3.87;;;3.47;;
2488;SDS011;1255;48.716;9.124;2022-09-01T23:49:15;3.63;;;3.33;;
2488;SDS011;1255;48.716;9.124;2022-09-01T23:51:44;4.57;;;3.93;;
2488;SDS011;1255;48.716;9.124;2022-09-01T23:54:12;4.27;;;3.97;;
2488;SDS011;1255;48.716;9.124;2022-09-01T23:56:41;4.43;;;4.03;;
2488;SDS011;1255;48.716;9.124;2022-09-01T23:59:07;3.63;;;3.30;;
